Orbital elements of MOMO-1
| Launched | 18 February 1987 |
| Flight ended | – |
| Launch site | Tanegashima Space Center, Japan |
| Owner | Japan |
| NORAD ID | 17527 |
| Alternative names |
MOS-1 |
| Date fetched |
Epoch osculation |
Inc. [°] |
Ecc. | RA asc node [hr] |
Arg Peri. [°] |
Mean anom [°] |
Mean motion [rev/day] |
Abs. mag |
| Date fetched |
Epoch osculation |
Inc. [°] |
Ecc. | RA asc node [hr] |
Arg Peri. [°] |
Mean anom [°] |
Mean motion [rev/day] |
Abs. mag |
| 2026 May 08 17:57 | 2026 May 05 09:17:56 | 98.8442 | 0.00076 | 11.7353 | 316.5092 | 53.9562 | 14.03200 | 5.243 |
| 2026 May 07 17:58 | 2026 May 05 09:17:56 | 98.8442 | 0.00076 | 11.7353 | 316.5092 | 53.9562 | 14.03200 | 5.243 |
| 2026 May 06 17:57 | 2026 May 05 09:17:56 | 98.8442 | 0.00076 | 11.7353 | 316.5092 | 53.9562 | 14.03200 | 5.243 |
| 2026 May 05 17:57 | 2026 May 05 09:17:56 | 98.8442 | 0.00076 | 11.7353 | 316.5092 | 53.9562 | 14.03200 | 5.243 |
| 2026 May 04 17:57 | 2026 Apr 30 15:22:10 | 98.8452 | 0.00078 | 11.4277 | 331.3415 | 53.9562 | 14.03200 | 5.243 |
| 2026 May 03 17:57 | 2026 Apr 30 15:22:10 | 98.8452 | 0.00078 | 11.4277 | 331.3415 | 53.9562 | 14.03200 | 5.243 |
| 2026 May 02 17:57 | 2026 Apr 30 15:22:10 | 98.8452 | 0.00078 | 11.4277 | 331.3415 | 53.9562 | 14.03200 | 5.243 |
| 2026 May 01 17:56 | 2026 Apr 30 15:22:10 | 98.8452 | 0.00078 | 11.4277 | 331.3415 | 53.9562 | 14.03200 | 5.243 |
| 2026 Apr 30 17:56 | 2026 Apr 30 15:22:10 | 98.8452 | 0.00078 | 11.4277 | 331.3415 | 53.9562 | 14.03200 | 5.243 |
| 2026 Apr 29 17:57 | 2026 Apr 24 02:57:08 | 98.8467 | 0.00081 | 11.0052 | 349.5914 | 53.9562 | 14.03200 | 5.243 |
| 2026 Apr 28 17:56 | 2026 Apr 24 02:57:08 | 98.8467 | 0.00081 | 11.0052 | 349.5914 | 53.9562 | 14.03200 | 5.243 |
| 2026 Apr 27 17:58 | 2026 Apr 24 02:57:08 | 98.8467 | 0.00081 | 11.0052 | 349.5914 | 53.9562 | 14.03200 | 5.243 |
| 2026 Apr 26 17:58 | 2026 Apr 24 02:57:08 | 98.8467 | 0.00081 | 11.0052 | 349.5914 | 53.9562 | 14.03200 | 5.243 |
| 2026 Apr 25 17:58 | 2026 Apr 24 02:57:08 | 98.8467 | 0.00081 | 11.0052 | 349.5914 | 53.9562 | 14.03200 | 5.243 |
| 2026 Apr 24 17:59 | 2026 Apr 24 02:57:08 | 98.8467 | 0.00081 | 11.0052 | 349.5914 | 53.9562 | 14.03200 | 5.243 |
| 2026 Apr 23 17:57 | 2026 Apr 19 09:57:55 | 98.8476 | 0.00083 | 10.6999 | 1.7937 | 53.9562 | 14.03200 | 5.243 |
| 2026 Apr 22 17:57 | 2026 Apr 19 09:57:55 | 98.8476 | 0.00083 | 10.6999 | 1.7937 | 53.9562 | 14.03200 | 5.243 |
| 2026 Apr 21 17:57 | 2026 Apr 19 09:57:55 | 98.8476 | 0.00083 | 10.6999 | 1.7937 | 53.9562 | 14.03200 | 5.243 |
| 2026 Apr 20 17:57 | 2026 Apr 19 09:57:55 | 98.8476 | 0.00083 | 10.6999 | 1.7937 | 53.9562 | 14.03200 | 5.243 |
| 2026 Apr 19 17:58 | 2026 Apr 19 09:57:55 | 98.8476 | 0.00083 | 10.6999 | 1.7937 | 53.9562 | 14.03200 | 5.243 |
| 2026 Apr 18 17:56 | 2026 Apr 13 03:22:51 | 98.8478 | 0.00085 | 10.2931 | 18.5549 | 53.9562 | 14.03200 | 5.243 |
| 2026 Apr 16 17:57 | 2026 Apr 13 03:22:51 | 98.8478 | 0.00085 | 10.2931 | 18.5549 | 53.9562 | 14.03200 | 5.243 |
| 2026 Apr 14 17:57 | 2026 Apr 13 03:22:51 | 98.8478 | 0.00085 | 10.2931 | 18.5549 | 53.9562 | 14.03200 | 5.243 |
| 2026 Apr 13 17:57 | 2026 Apr 13 03:22:51 | 98.8478 | 0.00085 | 10.2931 | 18.5549 | 53.9562 | 14.03200 | 5.243 |
| 2026 Apr 12 17:57 | 2026 Apr 08 14:34:11 | 98.8482 | 0.00087 | 9.9992 | 30.8826 | 53.9562 | 14.03200 | 5.243 |
| 2026 Apr 11 17:57 | 2026 Apr 08 14:34:11 | 98.8482 | 0.00087 | 9.9992 | 30.8826 | 53.9562 | 14.03200 | 5.243 |